sensor_id;sensor_type;location;lat;lon;timestamp;pressure;altitude;pressure_sealevel;temperature;humidity
30598;BME280;17365;48.878;8.334;2023-02-14T00:01:55;102044.41;;;2.30;100.00
30598;BME280;17365;48.878;8.334;2023-02-14T00:04:21;102043.97;;;2.11;100.00
30598;BME280;17365;48.878;8.334;2023-02-14T00:06:46;102040.41;;;1.96;100.00
30598;BME280;17365;48.878;8.334;2023-02-14T00:09:14;102043.16;;;1.99;100.00
30598;BME280;17365;48.878;8.334;2023-02-14T00:11:40;102037.44;;;2.03;100.00
30598;BME280;17365;48.878;8.334;2023-02-14T00:14:06;102033.16;;;1.77;100.00
30598;BME280;17365;48.878;8.334;2023-02-14T00:16:50;102033.88;;;1.88;100.00
30598;BME280;17365;48.878;8.334;2023-02-14T00:19:17;102034.72;;;1.75;100.00
30598;BME280;17365;48.878;8.334;2023-02-14T00:21:43;102030.84;;;1.93;100.00
30598;BME280;17365;48.878;8.334;2023-02-14T00:24:12;102033.59;;;1.96;100.00
30598;BME280;17365;48.878;8.334;2023-02-14T00:26:38;102037.72;;;1.44;100.00
30598;BME280;17365;48.878;8.334;2023-02-14T00:29:05;102028.75;;;1.88;100.00
30598;BME280;17365;48.878;8.334;2023-02-14T00:31:31;102029.31;;;1.70;100.00
30598;BME280;17365;48.878;8.334;2023-02-14T00:33:56;102029.31;;;2.09;100.00
30598;BME280;17365;48.878;8.334;2023-02-14T00:36:21;102027.78;;;1.86;100.00
30598;BME280;17365;48.878;8.334;2023-02-14T00:38:47;102030.25;;;1.97;100.00
30598;BME280;17365;48.878;8.334;2023-02-14T00:41:12;102027.28;;;1.91;100.00
30598;BME280;17365;48.878;8.334;2023-02-14T00:43:47;102021.19;;;1.89;100.00
30598;BME280;17365;48.878;8.334;2023-02-14T00:46:13;102023.91;;;2.04;100.00
30598;BME280;17365;48.878;8.334;2023-02-14T00:48:39;102029.75;;;1.90;100.00
30598;BME280;17365;48.878;8.334;2023-02-14T00:51:04;102033.44;;;1.57;100.00
30598;BME280;17365;48.878;8.334;2023-02-14T00:53:30;102027.81;;;1.74;100.00
30598;BME280;17365;48.878;8.334;2023-02-14T00:55:55;102029.56;;;1.62;100.00
30598;BME280;17365;48.878;8.334;2023-02-14T00:58:20;102025.00;;;1.83;100.00
30598;BME280;17365;48.878;8.334;2023-02-14T01:00:46;102022.75;;;1.87;100.00
30598;BME280;17365;48.878;8.334;2023-02-14T01:03:11;102019.31;;;1.87;100.00
30598;BME280;17365;48.878;8.334;2023-02-14T01:05:36;102028.41;;;1.95;100.00
30598;BME280;17365;48.878;8.334;2023-02-14T01:08:01;102025.16;;;2.11;100.00
30598;BME280;17365;48.878;8.334;2023-02-14T01:10:27;102027.91;;;2.14;100.00
30598;BME280;17365;48.878;8.334;2023-02-14T01:12:52;102027.06;;;2.26;100.00
30598;BME280;17365;48.878;8.334;2023-02-14T01:15:17;102027.91;;;2.14;100.00
30598;BME280;17365;48.878;8.334;2023-02-14T01:17:43;102031.38;;;2.14;100.00
30598;BME280;17365;48.878;8.334;2023-02-14T01:20:08;102042.72;;;2.18;100.00
30598;BME280;17365;48.878;8.334;2023-02-14T01:22:35;102045.41;;;1.94;100.00
30598;BME280;17365;48.878;8.334;2023-02-14T01:25:01;102043.22;;;2.25;100.00
30598;BME280;17365;48.878;8.334;2023-02-14T01:27:26;102049.97;;;2.12;100.00
30598;BME280;17365;48.878;8.334;2023-02-14T01:29:51;102049.53;;;2.17;100.00
30598;BME280;17365;48.878;8.334;2023-02-14T01:32:16;102042.56;;;2.28;99.97
30598;BME280;17365;48.878;8.334;2023-02-14T01:34:42;102043.28;;;2.14;100.00
30598;BME280;17365;48.878;8.334;2023-02-14T01:37:07;102043.84;;;1.96;99.91
30598;BME280;17365;48.878;8.334;2023-02-14T01:39:32;102042.19;;;2.10;100.00
30598;BME280;17365;48.878;8.334;2023-02-14T01:41:57;102041.25;;;1.83;100.00
30598;BME280;17365;48.878;8.334;2023-02-14T01:46:48;102035.47;;;1.99;100.00
30598;BME280;17365;48.878;8.334;2023-02-14T01:49:26;102043.19;;;2.12;100.00
30598;BME280;17365;48.878;8.334;2023-02-14T01:52:07;102041.91;;;1.56;100.00
30598;BME280;17365;48.878;8.334;2023-02-14T01:54:37;102044.41;;;1.92;100.00
30598;BME280;17365;48.878;8.334;2023-02-14T01:57:08;102034.72;;;2.13;100.00
30598;BME280;17365;48.878;8.334;2023-02-14T01:59:40;102040.19;;;2.31;100.00
30598;BME280;17365;48.878;8.334;2023-02-14T02:02:08;102043.53;;;2.30;100.00
30598;BME280;17365;48.878;8.334;2023-02-14T02:04:37;102037.69;;;2.19;100.00
30598;BME280;17365;48.878;8.334;2023-02-14T02:07:10;102035.94;;;2.31;100.00
30598;BME280;17365;48.878;8.334;2023-02-14T02:09:42;102028.53;;;2.23;100.00
30598;BME280;17365;48.878;8.334;2023-02-14T02:12:10;102039.09;;;2.27;100.00
30598;BME280;17365;48.878;8.334;2023-02-14T02:14:36;102033.28;;;2.30;100.00
30598;BME280;17365;48.878;8.334;2023-02-14T02:17:14;102039.75;;;2.25;100.00
30598;BME280;17365;48.878;8.334;2023-02-14T02:26:10;102028.19;;;2.43;100.00
30598;BME280;17365;48.878;8.334;2023-02-14T02:34:43;102023.16;;;1.68;100.00
30598;BME280;17365;48.878;8.334;2023-02-14T02:37:34;102015.28;;;2.03;100.00
30598;BME280;17365;48.878;8.334;2023-02-14T02:40:38;102019.75;;;2.06;100.00
30598;BME280;17365;48.878;8.334;2023-02-14T02:45:46;102013.66;;;2.04;100.00
30598;BME280;17365;48.878;8.334;2023-02-14T02:48:46;102013.81;;;1.94;100.00
30598;BME280;17365;48.878;8.334;2023-02-14T02:51:20;102019.72;;;1.93;100.00
30598;BME280;17365;48.878;8.334;2023-02-14T02:54:33;102007.31;;;1.99;100.00
30598;BME280;17365;48.878;8.334;2023-02-14T02:57:04;102008.38;;;2.27;100.00
30598;BME280;17365;48.878;8.334;2023-02-14T02:59:34;102007.78;;;2.18;100.00
30598;BME280;17365;48.878;8.334;2023-02-14T03:02:24;102004.50;;;2.08;100.00
30598;BME280;17365;48.878;8.334;2023-02-14T03:04:53;102002.75;;;2.33;100.00
30598;BME280;17365;48.878;8.334;2023-02-14T03:07:37;102008.16;;;2.24;100.00
30598;BME280;17365;48.878;8.334;2023-02-14T03:10:13;102005.50;;;2.36;100.00
30598;BME280;17365;48.878;8.334;2023-02-14T03:15:32;102001.06;;;2.47;100.00
30598;BME280;17365;48.878;8.334;2023-02-14T03:18:11;102009.22;;;2.15;100.00
30598;BME280;17365;48.878;8.334;2023-02-14T03:21:01;102008.16;;;2.24;100.00
30598;BME280;17365;48.878;8.334;2023-02-14T03:23:38;102003.47;;;1.92;100.00
30598;BME280;17365;48.878;8.334;2023-02-14T03:26:21;102006.19;;;2.20;100.00
30598;BME280;17365;48.878;8.334;2023-02-14T03:29:07;102017.91;;;1.54;100.00
30598;BME280;17365;48.878;8.334;2023-02-14T03:34:34;102010.53;;;1.58;100.00
30598;BME280;17365;48.878;8.334;2023-02-14T03:37:33;102012.84;;;1.42;100.00
30598;BME280;17365;48.878;8.334;2023-02-14T03:43:35;102021.69;;;1.47;100.00
30598;BME280;17365;48.878;8.334;2023-02-14T03:46:09;102019.31;;;0.53;100.00
30598;BME280;17365;48.878;8.334;2023-02-14T03:48:37;102022.13;;;1.53;100.00
30598;BME280;17365;48.878;8.334;2023-02-14T03:51:08;102011.41;;;1.70;100.00
30598;BME280;17365;48.878;8.334;2023-02-14T03:53:37;102018.75;;;0.93;100.00
30598;BME280;17365;48.878;8.334;2023-02-14T03:56:21;102018.97;;;1.32;100.00
30598;BME280;17365;48.878;8.334;2023-02-14T03:58:53;102017.94;;;1.42;100.00
30598;BME280;17365;48.878;8.334;2023-02-14T04:01:24;102020.75;;;1.58;100.00
30598;BME280;17365;48.878;8.334;2023-02-14T04:03:51;102015.97;;;1.38;100.00
30598;BME280;17365;48.878;8.334;2023-02-14T04:06:19;102020.94;;;1.48;100.00
30598;BME280;17365;48.878;8.334;2023-02-14T04:08:45;102016.94;;;1.90;100.00
30598;BME280;17365;48.878;8.334;2023-02-14T04:11:11;102018.47;;;1.74;100.00
30598;BME280;17365;48.878;8.334;2023-02-14T04:13:37;102020.06;;;1.72;100.00
30598;BME280;17365;48.878;8.334;2023-02-14T04:16:03;102022.00;;;1.27;100.00
30598;BME280;17365;48.878;8.334;2023-02-14T04:18:28;102026.41;;;1.66;100.00
30598;BME280;17365;48.878;8.334;2023-02-14T04:21:12;102023.81;;;1.16;100.00
30598;BME280;17365;48.878;8.334;2023-02-14T04:23:37;102027.63;;;1.71;100.00
30598;BME280;17365;48.878;8.334;2023-02-14T04:26:03;102017.81;;;1.52;100.00
30598;BME280;17365;48.878;8.334;2023-02-14T04:28:29;102023.16;;;1.68;100.00
30598;BME280;17365;48.878;8.334;2023-02-14T04:30:54;102014.56;;;1.55;100.00
30598;BME280;17365;48.878;8.334;2023-02-14T04:33:20;102023.63;;;0.90;100.00
30598;BME280;17365;48.878;8.334;2023-02-14T04:35:47;102021.13;;;1.26;100.00
30598;BME280;17365;48.878;8.334;2023-02-14T04:38:12;102025.19;;;0.41;100.00
30598;BME280;17365;48.878;8.334;2023-02-14T04:40:38;102021.59;;;0.04;100.00
30598;BME280;17365;48.878;8.334;2023-02-14T04:43:03;102021.91;;;-0.04;100.00
30598;BME280;17365;48.878;8.334;2023-02-14T04:45:28;102020.97;;;0.88;100.00
30598;BME280;17365;48.878;8.334;2023-02-14T04:47:54;102017.53;;;0.76;100.00
30598;BME280;17365;48.878;8.334;2023-02-14T04:50:19;102019.59;;;1.16;100.00
30598;BME280;17365;48.878;8.334;2023-02-14T04:52:47;102016.69;;;1.12;100.00
30598;BME280;17365;48.878;8.334;2023-02-14T04:55:12;102018.22;;;0.62;100.00
30598;BME280;17365;48.878;8.334;2023-02-14T04:57:37;102021.84;;;0.30;100.00
30598;BME280;17365;48.878;8.334;2023-02-14T05:00:03;102018.47;;;1.25;100.00
30598;BME280;17365;48.878;8.334;2023-02-14T05:02:29;102014.59;;;1.43;100.00
30598;BME280;17365;48.878;8.334;2023-02-14T05:04:54;102009.88;;;0.52;100.00
30598;BME280;17365;48.878;8.334;2023-02-14T05:07:19;101998.84;;;0.88;100.00
30598;BME280;17365;48.878;8.334;2023-02-14T05:09:45;101999.19;;;1.30;100.00
30598;BME280;17365;48.878;8.334;2023-02-14T05:12:10;101993.69;;;1.49;100.00
30598;BME280;17365;48.878;8.334;2023-02-14T05:14:35;101995.34;;;1.73;100.00
30598;BME280;17365;48.878;8.334;2023-02-14T05:17:00;102002.22;;;0.64;100.00
30598;BME280;17365;48.878;8.334;2023-02-14T05:19:26;101996.63;;;1.05;100.00
30598;BME280;17365;48.878;8.334;2023-02-14T05:21:51;102009.66;;;0.61;100.00
30598;BME280;17365;48.878;8.334;2023-02-14T05:24:16;101998.94;;;1.02;100.00
30598;BME280;17365;48.878;8.334;2023-02-14T05:26:42;102009.31;;;-0.24;100.00
30598;BME280;17365;48.878;8.334;2023-02-14T05:29:07;102014.31;;;0.67;100.00
30598;BME280;17365;48.878;8.334;2023-02-14T05:31:33;102007.91;;;1.20;100.00
30598;BME280;17365;48.878;8.334;2023-02-14T05:33:58;102013.06;;;1.33;100.00
30598;BME280;17365;48.878;8.334;2023-02-14T05:36:23;102002.28;;;0.89;100.00
30598;BME280;17365;48.878;8.334;2023-02-14T05:38:48;102009.53;;;1.31;100.00
30598;BME280;17365;48.878;8.334;2023-02-14T05:41:14;102008.00;;;1.22;100.00
30598;BME280;17365;48.878;8.334;2023-02-14T05:43:39;102011.03;;;1.16;100.00
30598;BME280;17365;48.878;8.334;2023-02-14T05:46:04;102006.78;;;1.53;100.00
30598;BME280;17365;48.878;8.334;2023-02-14T05:48:30;102019.19;;;0.87;100.00
30598;BME280;17365;48.878;8.334;2023-02-14T05:50:55;102022.63;;;0.76;100.00
30598;BME280;17365;48.878;8.334;2023-02-14T05:53:21;102024.25;;;1.10;100.00
30598;BME280;17365;48.878;8.334;2023-02-14T05:55:46;102029.06;;;0.94;100.00
30598;BME280;17365;48.878;8.334;2023-02-14T05:58:11;102028.13;;;1.17;100.00
30598;BME280;17365;48.878;8.334;2023-02-14T06:00:37;102025.63;;;1.42;100.00
30598;BME280;17365;48.878;8.334;2023-02-14T06:03:02;102032.88;;;1.24;100.00
30598;BME280;17365;48.878;8.334;2023-02-14T06:05:27;102031.91;;;1.22;100.00
30598;BME280;17365;48.878;8.334;2023-02-14T06:07:53;102026.34;;;1.28;100.00
30598;BME280;17365;48.878;8.334;2023-02-14T06:10:20;102025.06;;;1.34;100.00
30598;BME280;17365;48.878;8.334;2023-02-14T06:12:50;102037.75;;;0.73;100.00
30598;BME280;17365;48.878;8.334;2023-02-14T06:15:16;102033.34;;;1.19;100.00
30598;BME280;17365;48.878;8.334;2023-02-14T06:17:41;102037.44;;;1.28;100.00
30598;BME280;17365;48.878;8.334;2023-02-14T06:20:07;102040.25;;;1.20;100.00
30598;BME280;17365;48.878;8.334;2023-02-14T06:22:34;102046.28;;;1.45;100.00
30598;BME280;17365;48.878;8.334;2023-02-14T06:24:59;102039.16;;;1.53;100.00
30598;BME280;17365;48.878;8.334;2023-02-14T06:27:24;102043.53;;;1.67;100.00
30598;BME280;17365;48.878;8.334;2023-02-14T06:29:50;102045.41;;;1.69;100.00
30598;BME280;17365;48.878;8.334;2023-02-14T06:32:15;102048.28;;;1.74;100.00
30598;BME280;17365;48.878;8.334;2023-02-14T06:34:40;102047.66;;;1.65;100.00
30598;BME280;17365;48.878;8.334;2023-02-14T06:37:06;102044.50;;;1.69;100.00
30598;BME280;17365;48.878;8.334;2023-02-14T06:39:32;102055.03;;;1.60;100.00
30598;BME280;17365;48.878;8.334;2023-02-14T06:41:57;102052.19;;;1.44;100.00
30598;BME280;17365;48.878;8.334;2023-02-14T06:44:22;102047.97;;;1.33;100.00
30598;BME280;17365;48.878;8.334;2023-02-14T06:46:47;102050.06;;;1.13;100.00
30598;BME280;17365;48.878;8.334;2023-02-14T06:49:13;102051.97;;;0.93;100.00
30598;BME280;17365;48.878;8.334;2023-02-14T06:51:38;102057.03;;;1.16;100.00
30598;BME280;17365;48.878;8.334;2023-02-14T06:54:03;102050.16;;;1.52;100.00
30598;BME280;17365;48.878;8.334;2023-02-14T06:56:29;102058.50;;;1.49;100.00
30598;BME280;17365;48.878;8.334;2023-02-14T06:59:16;102053.22;;;1.23;100.00
30598;BME280;17365;48.878;8.334;2023-02-14T07:02:22;102053.69;;;1.29;100.00
30598;BME280;17365;48.878;8.334;2023-02-14T07:04:51;102057.41;;;1.45;100.00
30598;BME280;17365;48.878;8.334;2023-02-14T07:07:20;102060.31;;;1.38;100.00
30598;BME280;17365;48.878;8.334;2023-02-14T07:09:45;102069.25;;;1.57;100.00
30598;BME280;17365;48.878;8.334;2023-02-14T07:12:10;102053.75;;;1.42;100.00
30598;BME280;17365;48.878;8.334;2023-02-14T07:14:35;102055.53;;;1.43;100.00
30598;BME280;17365;48.878;8.334;2023-02-14T07:17:01;102047.72;;;1.53;100.00
30598;BME280;17365;48.878;8.334;2023-02-14T07:19:26;102048.66;;;1.67;100.00
30598;BME280;17365;48.878;8.334;2023-02-14T07:21:51;102047.25;;;1.59;100.00
30598;BME280;17365;48.878;8.334;2023-02-14T07:24:17;102034.19;;;1.67;100.00
30598;BME280;17365;48.878;8.334;2023-02-14T07:26:42;102041.22;;;1.70;100.00
30598;BME280;17365;48.878;8.334;2023-02-14T07:29:07;102043.22;;;1.62;100.00
30598;BME280;17365;48.878;8.334;2023-02-14T07:31:32;102047.22;;;1.70;100.00
30598;BME280;17365;48.878;8.334;2023-02-14T07:33:58;102050.63;;;1.34;100.00
30598;BME280;17365;48.878;8.334;2023-02-14T07:36:26;102043.28;;;1.75;100.00
30598;BME280;17365;48.878;8.334;2023-02-14T07:38:52;102047.84;;;1.68;100.00
30598;BME280;17365;48.878;8.334;2023-02-14T07:41:17;102046.81;;;1.53;100.00
30598;BME280;17365;48.878;8.334;2023-02-14T07:43:42;102040.97;;;1.42;100.00
30598;BME280;17365;48.878;8.334;2023-02-14T07:46:08;102047.41;;;1.73;100.00
30598;BME280;17365;48.878;8.334;2023-02-14T07:48:33;102052.41;;;1.97;100.00
30598;BME280;17365;48.878;8.334;2023-02-14T07:50:58;102044.59;;;1.82;100.00
30598;BME280;17365;48.878;8.334;2023-02-14T07:53:24;102053.28;;;1.97;99.58
30598;BME280;17365;48.878;8.334;2023-02-14T07:55:50;102053.69;;;1.54;100.00
30598;BME280;17365;48.878;8.334;2023-02-14T07:58:17;102051.25;;;1.19;100.00
30598;BME280;17365;48.878;8.334;2023-02-14T08:00:42;102057.88;;;1.40;100.00
30598;BME280;17365;48.878;8.334;2023-02-14T08:03:08;102056.41;;;1.68;100.00
30598;BME280;17365;48.878;8.334;2023-02-14T08:05:34;102054.03;;;1.83;100.00
30598;BME280;17365;48.878;8.334;2023-02-14T08:07:59;102055.41;;;1.05;100.00
30598;BME280;17365;48.878;8.334;2023-02-14T08:10:25;102052.28;;;1.45;100.00
30598;BME280;17365;48.878;8.334;2023-02-14T08:12:50;102050.81;;;1.61;100.00
30598;BME280;17365;48.878;8.334;2023-02-14T08:15:34;102045.00;;;1.88;100.00
30598;BME280;17365;48.878;8.334;2023-02-14T08:18:20;102041.84;;;1.92;100.00
30598;BME280;17365;48.878;8.334;2023-02-14T08:20:47;102049.53;;;1.92;100.00
30598;BME280;17365;48.878;8.334;2023-02-14T08:23:15;102046.88;;;1.91;100.00
30598;BME280;17365;48.878;8.334;2023-02-14T08:25:40;102052.44;;;1.24;100.00
30598;BME280;17365;48.878;8.334;2023-02-14T08:28:06;102050.31;;;1.66;100.00
30598;BME280;17365;48.878;8.334;2023-02-14T08:30:32;102046.22;;;1.93;100.00
30598;BME280;17365;48.878;8.334;2023-02-14T08:32:57;102047.91;;;2.06;100.00
30598;BME280;17365;48.878;8.334;2023-02-14T08:35:23;102047.91;;;1.56;100.00
30598;BME280;17365;48.878;8.334;2023-02-14T08:37:48;102055.53;;;1.43;100.00
30598;BME280;17365;48.878;8.334;2023-02-14T08:40:13;102059.03;;;1.57;100.00
30598;BME280;17365;48.878;8.334;2023-02-14T08:42:39;102066.50;;;1.79;100.00
30598;BME280;17365;48.878;8.334;2023-02-14T08:45:05;102057.75;;;2.13;100.00
30598;BME280;17365;48.878;8.334;2023-02-14T08:47:31;102058.16;;;1.81;100.00
30598;BME280;17365;48.878;8.334;2023-02-14T08:50:01;102060.16;;;1.85;100.00
30598;BME280;17365;48.878;8.334;2023-02-14T08:52:26;102058.03;;;1.80;100.00
30598;BME280;17365;48.878;8.334;2023-02-14T08:54:52;102068.16;;;1.16;100.00
30598;BME280;17365;48.878;8.334;2023-02-14T08:57:17;102063.81;;;1.15;100.00
30598;BME280;17365;48.878;8.334;2023-02-14T08:59:43;102052.91;;;1.18;100.00
30598;BME280;17365;48.878;8.334;2023-02-14T09:02:11;102064.28;;;0.98;100.00
30598;BME280;17365;48.878;8.334;2023-02-14T09:04:37;102064.16;;;1.08;100.00
30598;BME280;17365;48.878;8.334;2023-02-14T09:07:02;102062.34;;;1.19;100.00
30598;BME280;17365;48.878;8.334;2023-02-14T09:09:28;102067.44;;;1.31;100.00
30598;BME280;17365;48.878;8.334;2023-02-14T09:11:55;102063.13;;;1.30;100.00
30598;BME280;17365;48.878;8.334;2023-02-14T09:14:21;102061.81;;;1.00;100.00
30598;BME280;17365;48.878;8.334;2023-02-14T09:16:48;102059.84;;;0.37;100.00
30598;BME280;17365;48.878;8.334;2023-02-14T09:19:14;102062.63;;;0.64;100.00
30598;BME280;17365;48.878;8.334;2023-02-14T09:21:39;102055.53;;;0.48;100.00
30598;BME280;17365;48.878;8.334;2023-02-14T09:24:04;102049.63;;;0.96;100.00
30598;BME280;17365;48.878;8.334;2023-02-14T09:26:30;102046.69;;;1.26;100.00
30598;BME280;17365;48.878;8.334;2023-02-14T09:28:55;102049.97;;;0.77;100.00
30598;BME280;17365;48.878;8.334;2023-02-14T09:31:22;102056.97;;;0.79;100.00
30598;BME280;17365;48.878;8.334;2023-02-14T09:33:49;102052.19;;;0.72;100.00
30598;BME280;17365;48.878;8.334;2023-02-14T09:36:33;102047.84;;;0.83;100.00
30598;BME280;17365;48.878;8.334;2023-02-14T09:39:17;102047.44;;;1.37;100.00
30598;BME280;17365;48.878;8.334;2023-02-14T09:44:38;102039.28;;;1.92;100.00
30598;BME280;17365;48.878;8.334;2023-02-14T09:49:47;102044.22;;;1.28;100.00
30598;BME280;17365;48.878;8.334;2023-02-14T09:52:17;102037.06;;;1.35;100.00
30598;BME280;17365;48.878;8.334;2023-02-14T09:54:50;102033.41;;;1.68;100.00
30598;BME280;17365;48.878;8.334;2023-02-14T09:57:38;102031.13;;;1.85;100.00
30598;BME280;17365;48.878;8.334;2023-02-14T10:00:24;102033.78;;;1.36;100.00
30598;BME280;17365;48.878;8.334;2023-02-14T10:05:45;102029.84;;;1.91;100.00
30598;BME280;17365;48.878;8.334;2023-02-14T10:08:30;102022.69;;;1.99;100.00
30598;BME280;17365;48.878;8.334;2023-02-14T10:11:08;102029.00;;;1.29;100.00
30598;BME280;17365;48.878;8.334;2023-02-14T10:13:41;102019.25;;;1.73;100.00
30598;BME280;17365;48.878;8.334;2023-02-14T10:16:17;102021.13;;;2.14;100.00
30598;BME280;17365;48.878;8.334;2023-02-14T10:19:06;102027.81;;;1.99;100.00
30598;BME280;17365;48.878;8.334;2023-02-14T10:21:47;102035.47;;;1.99;100.00
30598;BME280;17365;48.878;8.334;2023-02-14T10:24:24;102035.91;;;1.55;100.00
30598;BME280;17365;48.878;8.334;2023-02-14T10:26:49;102031.53;;;0.93;100.00
30598;BME280;17365;48.878;8.334;2023-02-14T10:29:18;102031.16;;;1.73;100.00
30598;BME280;17365;48.878;8.334;2023-02-14T10:32:03;102037.31;;;1.38;100.00
30598;BME280;17365;48.878;8.334;2023-02-14T10:37:13;102045.63;;;0.76;100.00
30598;BME280;17365;48.878;8.334;2023-02-14T10:39:55;102031.41;;;0.56;100.00
30598;BME280;17365;48.878;8.334;2023-02-14T10:42:46;102028.13;;;1.54;100.00
30598;BME280;17365;48.878;8.334;2023-02-14T10:53:18;102018.84;;;0.94;100.00
30598;BME280;17365;48.878;8.334;2023-02-14T10:58:26;102004.22;;;1.78;100.00
30598;BME280;17365;48.878;8.334;2023-02-14T11:01:04;102012.06;;;0.95;100.00
30598;BME280;17365;48.878;8.334;2023-02-14T11:03:32;102007.53;;;1.02;100.00
30598;BME280;17365;48.878;8.334;2023-02-14T11:05:58;102000.28;;;1.58;100.00
30598;BME280;17365;48.878;8.334;2023-02-14T11:08:36;101999.13;;;1.16;100.00
30598;BME280;17365;48.878;8.334;2023-02-14T11:11:11;102001.44;;;0.77;100.00
30598;BME280;17365;48.878;8.334;2023-02-14T11:13:40;101997.22;;;1.26;100.00
30598;BME280;17365;48.878;8.334;2023-02-14T11:16:09;101992.22;;;1.27;100.00
30598;BME280;17365;48.878;8.334;2023-02-14T11:18:36;101977.75;;;1.78;100.00
30598;BME280;17365;48.878;8.334;2023-02-14T11:21:10;101976.66;;;2.52;100.00
30598;BME280;17365;48.878;8.334;2023-02-14T11:23:42;101965.59;;;2.79;100.00
30598;BME280;17365;48.878;8.334;2023-02-14T11:26:23;101969.19;;;3.09;98.68
30598;BME280;17365;48.878;8.334;2023-02-14T11:28:55;101969.84;;;2.13;99.94
30598;BME280;17365;48.878;8.334;2023-02-14T11:31:27;101969.06;;;2.53;100.00
30598;BME280;17365;48.878;8.334;2023-02-14T11:33:54;101964.16;;;2.17;99.77
30598;BME280;17365;48.878;8.334;2023-02-14T11:36:20;101954.00;;;2.45;100.00
30598;BME280;17365;48.878;8.334;2023-02-14T11:38:54;101960.34;;;2.91;98.56
30598;BME280;17365;48.878;8.334;2023-02-14T11:41:20;101949.84;;;2.60;95.43
30598;BME280;17365;48.878;8.334;2023-02-14T11:43:45;101946.81;;;2.93;97.41
30598;BME280;17365;48.878;8.334;2023-02-14T11:46:14;101951.34;;;1.65;100.00
30598;BME280;17365;48.878;8.334;2023-02-14T11:48:57;101949.44;;;2.67;100.00
30598;BME280;17365;48.878;8.334;2023-02-14T11:51:37;101939.97;;;2.79;97.49
30598;BME280;17365;48.878;8.334;2023-02-14T11:54:11;101936.34;;;3.04;96.46
30598;BME280;17365;48.878;8.334;2023-02-14T11:56:45;101938.94;;;2.90;96.90
30598;BME280;17365;48.878;8.334;2023-02-14T11:59:29;101936.09;;;2.18;98.30
30598;BME280;17365;48.878;8.334;2023-02-14T12:01:57;101937.44;;;2.26;100.00
30598;BME280;17365;48.878;8.334;2023-02-14T12:04:31;101935.56;;;2.11;100.00
30598;BME280;17365;48.878;8.334;2023-02-14T12:07:31;101927.91;;;1.09;100.00
30598;BME280;17365;48.878;8.334;2023-02-14T12:15:38;101914.00;;;3.16;97.87
30598;BME280;17365;48.878;8.334;2023-02-14T12:23:44;101906.06;;;2.83;98.30
30598;BME280;17365;48.878;8.334;2023-02-14T12:31:36;101907.66;;;2.68;99.59
30598;BME280;17365;48.878;8.334;2023-02-14T12:34:03;101908.31;;;2.79;99.80
30598;BME280;17365;48.878;8.334;2023-02-14T12:36:42;101910.06;;;1.86;100.00
30598;BME280;17365;48.878;8.334;2023-02-14T12:39:28;101906.00;;;2.55;100.00
30598;BME280;17365;48.878;8.334;2023-02-14T12:50:12;101893.13;;;2.95;94.97
30598;BME280;17365;48.878;8.334;2023-02-14T12:53:28;101878.09;;;3.59;94.53
30598;BME280;17365;48.878;8.334;2023-02-14T12:58:48;101869.13;;;3.37;95.65
30598;BME280;17365;48.878;8.334;2023-02-14T13:14:17;101865.47;;;4.07;92.40
30598;BME280;17365;48.878;8.334;2023-02-14T13:17:16;101854.47;;;3.49;93.93
30598;BME280;17365;48.878;8.334;2023-02-14T13:22:33;101851.63;;;2.87;98.60
30598;BME280;17365;48.878;8.334;2023-02-14T13:25:04;101842.00;;;3.56;97.07
30598;BME280;17365;48.878;8.334;2023-02-14T13:27:32;101835.72;;;3.65;94.77
30598;BME280;17365;48.878;8.334;2023-02-14T13:30:12;101839.59;;;3.29;97.24
30598;BME280;17365;48.878;8.334;2023-02-14T13:32:41;101837.13;;;3.75;95.59
30598;BME280;17365;48.878;8.334;2023-02-14T13:35:13;101831.13;;;3.30;96.65
30598;BME280;17365;48.878;8.334;2023-02-14T13:37:50;101836.03;;;3.12;97.69
30598;BME280;17365;48.878;8.334;2023-02-14T13:40:19;101829.44;;;3.45;97.93
30598;BME280;17365;48.878;8.334;2023-02-14T13:48:13;101818.06;;;2.42;100.00
30598;BME280;17365;48.878;8.334;2023-02-14T13:50:49;101814.31;;;2.78;100.00
30598;BME280;17365;48.878;8.334;2023-02-14T13:53:32;101826.25;;;3.35;98.39
30598;BME280;17365;48.878;8.334;2023-02-14T13:55:57;101822.88;;;3.36;98.13
30598;BME280;17365;48.878;8.334;2023-02-14T13:58:23;101814.38;;;3.66;97.80
30598;BME280;17365;48.878;8.334;2023-02-14T14:00:51;101815.53;;;3.86;95.99
30598;BME280;17365;48.878;8.334;2023-02-14T14:06:11;101814.84;;;3.30;98.82
30598;BME280;17365;48.878;8.334;2023-02-14T14:08:44;101802.88;;;3.74;96.27
30598;BME280;17365;48.878;8.334;2023-02-14T14:11:48;101802.44;;;3.67;93.99
30598;BME280;17365;48.878;8.334;2023-02-14T14:14:02;101806.22;;;3.00;98.13
30598;BME280;17365;48.878;8.334;2023-02-14T14:16:33;101792.69;;;3.76;96.77
30598;BME280;17365;48.878;8.334;2023-02-14T14:21:37;101784.94;;;3.45;97.59
30598;BME280;17365;48.878;8.334;2023-02-14T14:24:23;101792.09;;;3.65;95.96
30598;BME280;17365;48.878;8.334;2023-02-14T14:29:28;101779.38;;;3.98;94.91
30598;BME280;17365;48.878;8.334;2023-02-14T14:31:54;101782.56;;;4.41;92.71
30598;BME280;17365;48.878;8.334;2023-02-14T14:34:23;101778.63;;;4.31;93.35
30598;BME280;17365;48.878;8.334;2023-02-14T14:36:50;101787.63;;;4.39;91.46
30598;BME280;17365;48.878;8.334;2023-02-14T14:39:30;101781.66;;;4.24;91.99
30598;BME280;17365;48.878;8.334;2023-02-14T14:42:12;101778.16;;;4.55;91.80
30598;BME280;17365;48.878;8.334;2023-02-14T14:44:45;101780.56;;;4.52;92.50
30598;BME280;17365;48.878;8.334;2023-02-14T14:47:16;101767.78;;;4.37;92.25
30598;BME280;17365;48.878;8.334;2023-02-14T14:49:42;101764.50;;;4.72;91.60
30598;BME280;17365;48.878;8.334;2023-02-14T14:52:21;101761.50;;;4.16;92.03
30598;BME280;17365;48.878;8.334;2023-02-14T14:54:48;101763.16;;;4.46;92.51